Time;durP1;ratioP1;P1;durP2;ratioP2;P2;SDS_P1;SDS_P2;PMS_P1;PMS_P2;Temp;Humidity;BMP_temperature;BMP_pressure;BME280_temperature;BME280_humidity;BME280_pressure;Samples;Min_cycle;Max_cycle;Signal;HPM_P1;HPM_P2
2022/08/23 00:00:40;;;;;;;9.30;4.30;;;18.40;99.90;;;;;;5033660;28;20119;-77
2022/08/23 00:03:06;;;;;;;7.23;3.77;;;18.40;99.90;;;;;;5033504;28;20048;-77
2022/08/23 00:05:32;;;;;;;6.10;3.45;;;18.40;99.90;;;;;;5033615;28;20122;-77
2022/08/23 00:07:57;;;;;;;6.82;3.42;;;18.40;99.90;;;;;;5033599;28;20045;-77
2022/08/23 00:10:23;;;;;;;6.43;3.53;;;18.30;99.90;;;;;;5033322;28;20132;-77
2022/08/23 00:12:49;;;;;;;7.67;4.20;;;18.30;99.90;;;;;;5033464;28;20127;-77
2022/08/23 00:15:17;;;;;;;8.20;3.83;;;18.20;99.90;;;;;;5033522;28;20053;-77
2022/08/23 00:17:43;;;;;;;6.50;3.50;;;18.20;99.90;;;;;;5032576;28;20394;-77
2022/08/23 00:20:13;;;;;;;8.57;3.67;;;18.30;99.90;;;;;;5034251;28;20115;-77
2022/08/23 00:22:39;;;;;;;9.30;3.90;;;18.10;99.90;;;;;;5037533;28;20045;-77
2022/08/23 00:25:08;;;;;;;6.20;4.20;;;18.10;99.90;;;;;;5035897;28;20073;-77
2022/08/23 00:27:34;;;;;;;7.38;4.00;;;18.10;99.90;;;;;;5036048;28;20068;-77
2022/08/23 00:30:00;;;;;;;10.00;4.20;;;18.00;99.90;;;;;;5037081;28;20041;-77
2022/08/23 00:32:29;;;;;;;6.03;3.92;;;18.10;99.90;;;;;;5037032;28;20045;-77
2022/08/23 00:34:55;;;;;;;7.28;4.32;;;18.00;99.90;;;;;;5037165;28;20053;-77
2022/08/23 00:37:22;;;;;;;6.28;4.22;;;17.90;99.90;;;;;;5036161;28;20393;-77
2022/08/23 00:39:48;;;;;;;7.20;4.40;;;17.90;99.90;;;;;;5036043;28;20505;-77
2022/08/23 00:48:07;;;;;;;6.88;4.28;;;17.80;99.90;;;;;;5036811;28;20054;-77
2022/08/23 00:50:46;;;;;;;7.38;4.32;;;17.70;99.90;;;;;;5036814;28;20049;-77
2022/08/23 00:53:21;;;;;;;8.80;4.45;;;17.80;99.90;;;;;;5036740;28;20052;-77
2022/08/23 00:55:51;;;;;;;8.25;4.32;;;17.70;99.90;;;;;;5036976;28;20042;-77
2022/08/23 00:58:19;;;;;;;6.88;4.22;;;17.60;99.90;;;;;;5036835;28;20378;-77
2022/08/23 01:00:46;;;;;;;8.07;4.43;;;17.70;99.90;;;;;;5036516;28;20041;-77
2022/08/23 01:03:13;;;;;;;6.75;4.25;;;17.60;99.90;;;;;;5037119;28;20045;-77
2022/08/23 01:06:06;;;;;;;9.20;4.55;;;17.60;99.90;;;;;;5036290;28;20084;-77
2022/08/23 01:08:34;;;;;;;7.97;4.70;;;17.60;99.90;;;;;;5036491;28;20041;-77
2022/08/23 01:11:06;;;;;;;8.27;4.68;;;17.60;99.90;;;;;;5036211;28;20050;-77
2022/08/23 01:13:59;;;;;;;6.80;4.45;;;17.60;99.90;;;;;;5035983;28;20057;-77
2022/08/23 01:16:38;;;;;;;10.15;4.97;;;17.60;99.90;;;;;;5036225;28;20049;-77
2022/08/23 01:19:12;;;;;;;7.45;5.20;;;17.60;99.90;;;;;;5036316;28;20049;-77
2022/08/23 01:21:51;;;;;;;7.55;4.70;;;17.60;99.90;;;;;;5036312;28;20048;-77
2022/08/23 01:24:18;;;;;;;6.75;4.50;;;17.50;99.90;;;;;;5036255;28;20049;-77
2022/08/23 01:26:46;;;;;;;;;;;17.50;99.90;;;;;;5036553;28;20045;-77
2022/08/23 01:29:12;;;;;;;;;;;17.40;99.90;;;;;;5036624;28;19956;-77
2022/08/23 01:31:38;;;;;;;8.55;5.68;;;17.40;99.90;;;;;;5034892;28;19943;-77
2022/08/23 01:34:07;;;;;;;9.60;5.60;;;17.40;99.90;;;;;;5036002;28;20084;-77
2022/08/23 01:36:34;;;;;;;7.68;5.00;;;17.50;99.90;;;;;;5035957;28;20123;-77
2022/08/23 01:39:00;;;;;;;8.45;5.22;;;17.30;99.90;;;;;;5035955;28;20052;-77
2022/08/23 01:41:26;;;;;;;9.67;6.00;;;17.20;99.90;;;;;;5035718;28;20489;-77
2022/08/23 01:43:51;;;;;;;9.80;5.77;;;17.20;99.90;;;;;;5035903;28;20153;-77
2022/08/23 01:46:21;;;;;;;8.47;5.60;;;17.20;99.90;;;;;;5034617;28;20473;-77
2022/08/23 01:48:48;;;;;;;9.57;5.75;;;17.20;99.90;;;;;;5034825;28;20049;-77
2022/08/23 01:51:16;;;;;;;9.77;5.75;;;17.20;99.90;;;;;;5035726;28;20037;-77
2022/08/23 01:53:42;;;;;;;6.95;5.10;;;17.20;99.90;;;;;;5035652;28;20084;-76
2022/08/23 01:56:08;;;;;;;11.80;6.57;;;17.20;99.90;;;;;;5035871;28;20037;-77
2022/08/23 01:58:34;;;;;;;7.63;5.80;;;17.20;99.90;;;;;;5035532;28;20081;-77
2022/08/23 02:01:00;;;;;;;7.82;5.28;;;17.20;99.90;;;;;;5035467;28;20285;-77
2022/08/23 02:03:27;;;;;;;12.15;6.90;;;17.10;99.90;;;;;;5035786;28;20056;-77
2022/08/23 02:05:54;;;;;;;8.45;6.07;;;17.00;99.90;;;;;;5035327;28;20127;-77
2022/08/23 02:11:10;;;;;;;7.47;6.05;;;17.10;99.90;;;;;;5035348;28;20073;-77
2022/08/23 02:13:36;;;;;;;7.93;6.07;;;17.10;99.90;;;;;;5033969;28;20054;-77
2022/08/23 02:16:02;;;;;;;8.07;5.87;;;17.10;99.90;;;;;;5035299;28;20068;-77
2022/08/23 02:18:28;;;;;;;9.67;6.43;;;17.00;99.90;;;;;;5035230;28;20512;-77
2022/08/23 02:20:54;;;;;;;;;;;17.00;99.90;;;;;;5035033;28;20425;-77
2022/08/23 02:23:21;;;;;;;9.05;6.25;;;17.00;99.90;;;;;;5035015;28;19921;-77
2022/08/23 02:25:47;;;;;;;8.73;6.00;;;17.00;99.90;;;;;;5034929;28;20191;-77
2022/08/23 02:28:13;;;;;;;9.40;6.53;;;16.90;99.90;;;;;;5034976;28;20053;-77
2022/08/23 02:30:39;;;;;;;11.35;7.20;;;16.90;99.90;;;;;;5034965;28;20053;-77
2022/08/23 02:33:04;;;;;;;9.23;6.87;;;16.90;99.90;;;;;;5034948;28;20485;-77
2022/08/23 02:35:32;;;;;;;9.53;7.03;;;16.80;99.90;;;;;;5034795;28;20509;-77
2022/08/23 02:38:03;;;;;;;9.43;7.65;;;16.80;99.90;;;;;;5034781;28;20042;-77
2022/08/23 02:40:28;;;;;;;11.52;8.85;;;16.80;99.90;;;;;;5034779;28;20528;-77
2022/08/23 02:42:54;;;;;;;13.40;8.37;;;16.80;99.90;;;;;;5034143;28;20077;-77
2022/08/23 02:45:20;;;;;;;10.93;7.93;;;16.80;99.90;;;;;;5034709;28;20474;-77
2022/08/23 02:47:46;;;;;;;15.27;9.57;;;16.90;99.90;;;;;;5034473;28;20083;-77
2022/08/23 02:50:12;;;;;;;9.75;7.57;;;16.80;99.90;;;;;;5034427;28;20284;-77
2022/08/23 02:52:38;;;;;;;9.87;8.33;;;16.90;99.90;;;;;;5034367;28;20129;-77
2022/08/23 02:55:05;;;;;;;9.83;8.37;;;16.80;99.90;;;;;;5034393;28;20432;-77
2022/08/23 02:57:30;;;;;;;11.75;8.73;;;16.80;99.90;;;;;;5034216;28;20053;-77
2022/08/23 02:59:56;;;;;;;12.50;8.73;;;16.80;99.90;;;;;;5033316;28;20108;-77
2022/08/23 03:02:22;;;;;;;11.55;9.05;;;16.90;99.90;;;;;;5034573;28;20045;-77
2022/08/23 03:04:48;;;;;;;15.73;10.13;;;16.70;99.90;;;;;;5034329;28;20049;-77
2022/08/23 03:07:13;;;;;;;13.97;9.80;;;16.70;99.90;;;;;;5034255;28;20551;-77
2022/08/23 03:09:39;;;;;;;13.23;10.50;;;16.70;99.90;;;;;;5034337;28;20053;-77
2022/08/23 03:12:05;;;;;;;10.30;8.90;;;16.70;99.90;;;;;;5033961;28;20400;-77
2022/08/23 03:14:31;;;;;;;11.40;9.70;;;16.70;99.90;;;;;;5034771;28;20050;-77
2022/08/23 03:16:56;;;;;;;12.97;9.10;;;16.70;99.90;;;;;;5034132;28;20048;-77
2022/08/23 03:19:23;;;;;;;11.27;9.13;;;16.70;99.90;;;;;;5034418;28;20053;-76
2022/08/23 03:21:48;;;;;;;12.02;9.60;;;16.70;99.90;;;;;;5033863;28;20564;-76
2022/08/23 03:24:14;;;;;;;10.93;9.17;;;16.70;99.90;;;;;;5034087;28;20098;-77
2022/08/23 03:26:42;;;;;;;12.37;10.00;;;16.70;99.90;;;;;;5034031;28;20044;-77
2022/08/23 03:29:08;;;;;;;11.88;9.60;;;16.60;99.90;;;;;;5034108;28;20079;-77
2022/08/23 03:31:34;;;;;;;14.23;9.57;;;16.70;99.90;;;;;;5034233;28;20397;-77
2022/08/23 03:34:00;;;;;;;12.20;8.97;;;16.60;99.90;;;;;;5033991;28;20071;-77
2022/08/23 03:36:25;;;;;;;13.13;10.73;;;16.60;99.90;;;;;;5033633;28;20045;-77
2022/08/23 03:38:51;;;;;;;13.00;10.50;;;16.70;99.90;;;;;;5033059;28;20077;-77
2022/08/23 03:41:17;;;;;;;12.97;10.60;;;16.60;99.90;;;;;;5033896;28;20077;-77
2022/08/23 03:43:42;;;;;;;11.70;10.37;;;16.60;99.90;;;;;;5032417;28;20042;-77
2022/08/23 03:46:08;;;;;;;15.00;10.40;;;16.60;99.90;;;;;;5033516;28;20068;-77
2022/08/23 03:48:34;;;;;;;15.00;9.70;;;16.60;99.90;;;;;;5033837;28;20045;-77
2022/08/23 03:51:00;;;;;;;12.73;11.10;;;16.60;99.90;;;;;;5033906;28;20405;-77
2022/08/23 03:53:25;;;;;;;12.90;9.50;;;16.60;99.90;;;;;;5032514;28;20042;-77
2022/08/23 03:55:53;;;;;;;14.00;10.73;;;16.60;99.90;;;;;;5037560;28;20497;-77
2022/08/23 03:58:20;;;;;;;12.98;10.40;;;16.60;99.90;;;;;;5037688;28;20045;-77
2022/08/23 04:00:46;;;;;;;;;;;16.60;99.90;;;;;;5038212;28;20041;-77
2022/08/23 04:03:12;;;;;;;10.85;9.52;;;16.50;99.90;;;;;;5037717;28;19925;-77
2022/08/23 04:05:37;;;;;;;10.77;9.73;;;16.50;99.90;;;;;;5037616;28;20433;-77
2022/08/23 04:08:08;;;;;;;10.23;9.23;;;16.70;99.90;;;;;;5037813;28;20133;-77
2022/08/23 04:10:34;;;;;;;11.30;9.52;;;16.50;99.90;;;;;;5037502;28;20052;-77
2022/08/23 04:13:00;;;;;;;13.23;9.70;;;16.50;99.90;;;;;;5036942;28;20053;-76
2022/08/23 04:15:26;;;;;;;13.17;9.33;;;16.40;99.90;;;;;;5037447;28;20045;-77
2022/08/23 04:17:51;;;;;;;15.13;10.20;;;16.40;99.90;;;;;;5037345;28;20045;-77
2022/08/23 04:20:17;;;;;;;11.93;9.60;;;16.30;99.90;;;;;;5037396;28;20053;-77
2022/08/23 04:22:43;;;;;;;12.23;9.23;;;16.30;99.90;;;;;;5037380;28;20046;-77
2022/08/23 04:25:09;;;;;;;10.77;9.27;;;16.30;99.90;;;;;;5037206;28;20393;-77
2022/08/23 04:27:35;;;;;;;12.32;9.52;;;16.40;99.90;;;;;;5037406;28;20053;-77
2022/08/23 04:30:00;;;;;;;11.70;9.10;;;16.30;99.90;;;;;;5037225;28;20045;-77
2022/08/23 04:32:26;;;;;;;11.27;9.10;;;16.30;99.90;;;;;;5037624;28;20553;-77
2022/08/23 04:34:52;;;;;;;11.67;8.97;;;16.30;99.90;;;;;;5036603;28;20058;-78
2022/08/23 04:37:17;;;;;;;11.63;9.53;;;16.30;99.90;;;;;;5037378;28;20128;-77
2022/08/23 04:42:28;;;;;;;10.82;7.95;;;16.20;99.90;;;;;;5036816;28;20397;-77
2022/08/23 04:44:54;;;;;;;8.45;7.57;;;16.20;99.90;;;;;;5036828;28;20430;-77
2022/08/23 04:47:20;;;;;;;9.77;8.57;;;16.30;99.90;;;;;;5036763;28;20038;-77
2022/08/23 04:49:45;;;;;;;8.57;7.47;;;16.20;99.90;;;;;;5036713;28;20378;-77
2022/08/23 04:52:12;;;;;;;10.23;7.67;;;16.30;99.90;;;;;;5036935;28;20103;-77
2022/08/23 04:54:38;;;;;;;9.77;8.07;;;16.20;99.90;;;;;;5036664;28;20050;-77
2022/08/23 04:57:04;;;;;;;9.10;8.00;;;16.20;99.90;;;;;;5036813;28;20096;-77
2022/08/23 04:59:29;;;;;;;10.30;8.00;;;16.20;99.90;;;;;;5036677;28;20045;-77
2022/08/23 05:01:55;;;;;;;11.73;7.70;;;16.20;99.90;;;;;;5036974;28;20041;-77
2022/08/23 05:04:23;;;;;;;11.97;8.60;;;16.30;99.90;;;;;;5036715;28;20084;-77
2022/08/23 05:06:50;;;;;;;10.00;7.70;;;16.30;99.90;;;;;;5035825;28;20478;-77
2022/08/23 05:09:16;;;;;;;11.98;8.23;;;16.30;99.90;;;;;;5036089;28;20077;-77
2022/08/23 05:11:42;;;;;;;9.27;7.37;;;16.30;99.90;;;;;;5036969;28;20126;-76
2022/08/23 05:14:07;;;;;;;8.83;7.93;;;16.30;99.90;;;;;;5035940;28;20519;-77
2022/08/23 05:16:33;;;;;;;9.10;7.80;;;16.30;99.90;;;;;;5035432;28;20049;-77
2022/08/23 05:18:59;;;;;;;10.27;8.47;;;16.30;99.90;;;;;;5036241;28;20049;-77
2022/08/23 05:21:25;;;;;;;11.03;7.93;;;16.30;99.90;;;;;;5036386;28;20056;-77
2022/08/23 05:23:51;;;;;;;12.13;7.78;;;16.30;99.90;;;;;;5036333;28;20394;-77
2022/08/23 05:26:17;;;;;;;11.27;7.80;;;16.40;99.90;;;;;;5036236;28;20046;-77
2022/08/23 05:28:46;;;;;;;16.65;7.97;;;16.40;99.90;;;;;;5035243;28;20420;-77
2022/08/23 05:31:19;;;;;;;11.70;8.60;;;16.40;99.90;;;;;;5034853;28;20056;-77
2022/08/23 05:33:45;;;;;;;10.05;8.05;;;16.40;99.90;;;;;;5035149;28;20056;-77
2022/08/23 05:36:13;;;;;;;15.32;9.13;;;16.40;99.90;;;;;;5036001;28;20095;-77
2022/08/23 05:38:40;;;;;;;12.18;8.77;;;16.50;99.90;;;;;;5035781;28;20049;-77
2022/08/23 05:41:06;;;;;;;14.90;9.02;;;16.50;99.90;;;;;;5035043;28;20084;-77
2022/08/23 05:43:32;;;;;;;9.75;8.57;;;16.50;99.90;;;;;;5035827;28;20106;-77
2022/08/23 05:46:01;;;;;;;13.37;8.83;;;16.60;99.90;;;;;;5035724;28;20124;-77
2022/08/23 05:48:27;;;;;;;12.23;8.63;;;16.60;99.90;;;;;;5035801;28;20041;-76
2022/08/23 05:50:53;;;;;;;13.13;8.75;;;16.70;99.90;;;;;;5034578;28;20132;-77
2022/08/23 05:53:19;;;;;;;11.63;8.33;;;16.70;99.90;;;;;;5035612;28;20520;-77
2022/08/23 05:55:45;;;;;;;11.23;8.37;;;16.70;99.90;;;;;;5035704;28;20041;-78
2022/08/23 05:58:11;;;;;;;13.80;8.82;;;16.80;99.90;;;;;;5035353;28;20052;-77
2022/08/23 06:00:36;;;;;;;9.80;8.80;;;16.90;99.90;;;;;;5035503;28;20049;-77
2022/08/23 06:03:02;;;;;;;11.97;9.10;;;16.90;99.90;;;;;;5034459;28;20081;-77
2022/08/23 06:05:28;;;;;;;12.87;9.67;;;17.00;99.90;;;;;;5035381;28;20046;-77
2022/08/23 06:07:54;;;;;;;16.17;9.43;;;17.10;99.90;;;;;;5035374;28;20045;-77
2022/08/23 06:10:20;;;;;;;13.23;8.98;;;17.20;99.90;;;;;;5035372;28;20566;-77
2022/08/23 06:12:46;;;;;;;14.50;8.83;;;17.30;99.90;;;;;;5034984;28;20097;-77
2022/08/23 06:15:12;;;;;;;15.85;9.57;;;17.40;99.90;;;;;;5035326;28;20092;-77
2022/08/23 06:17:38;;;;;;;15.07;9.10;;;17.60;99.90;;;;;;5034403;28;20149;-77
2022/08/23 06:20:05;;;;;;;16.47;8.70;;;17.90;99.90;;;;;;5035142;28;20045;-77
2022/08/23 06:22:31;;;;;;;13.45;8.23;;;18.00;99.90;;;;;;5034792;28;20076;-77
2022/08/23 06:24:57;;;;;;;11.13;7.47;;;18.30;99.90;;;;;;5034752;28;20049;-77
2022/08/23 06:27:23;;;;;;;15.97;7.77;;;18.40;99.90;;;;;;5034498;28;20089;-77
2022/08/23 06:29:48;;;;;;;13.17;7.73;;;18.60;99.90;;;;;;5034664;28;20041;-77
2022/08/23 06:32:14;;;;;;;18.37;6.10;;;18.80;99.90;;;;;;5034997;28;20037;-77
2022/08/23 06:34:39;;;;;;;9.90;6.30;;;19.00;99.90;;;;;;5034818;28;20485;-78
2022/08/23 06:37:11;;;;;;;11.87;5.93;;;19.10;99.90;;;;;;5034310;28;20052;-78
2022/08/23 06:39:38;;;;;;;16.63;6.13;;;19.30;99.90;;;;;;5034287;28;20144;-78
2022/08/23 06:42:12;;;;;;;10.82;6.40;;;19.60;99.90;;;;;;5034531;28;20128;-78
2022/08/23 06:44:38;;;;;;;8.75;6.45;;;19.80;99.90;;;;;;5034618;28;20072;-78
2022/08/23 06:47:05;;;;;;;9.90;5.75;;;19.90;99.90;;;;;;5034418;28;20056;-78
2022/08/23 06:49:32;;;;;;;13.75;5.70;;;20.00;99.90;;;;;;5034484;28;20045;-78
2022/08/23 06:51:58;;;;;;;;;;;20.20;99.90;;;;;;5034706;28;20045;-78
2022/08/23 06:54:26;;;;;;;8.32;4.78;;;20.30;99.90;;;;;;5034272;28;19921;-79
2022/08/23 06:56:53;;;;;;;8.73;4.78;;;20.40;99.90;;;;;;5033365;28;20507;-78
2022/08/23 06:59:19;;;;;;;7.55;4.78;;;20.50;99.90;;;;;;5034207;28;20413;-78
2022/08/23 07:01:45;;;;;;;;;;;20.60;99.90;;;;;;5034930;28;20045;-78
2022/08/23 07:04:13;;;;;;;8.27;4.68;;;20.70;99.90;;;;;;5034068;28;19928;-78
2022/08/23 07:06:39;;;;;;;8.10;4.60;;;20.80;99.90;;;;;;5033987;28;20045;-78
2022/08/23 07:09:05;;;;;;;7.43;4.50;;;20.90;99.90;;;;;;5016651;28;20052;-79
2022/08/23 07:11:32;;;;;;;8.88;4.15;;;21.00;99.90;;;;;;5034045;28;20100;-78
2022/08/23 07:14:03;;;;;;;6.75;4.40;;;21.00;99.90;;;;;;5034133;28;20553;-78
2022/08/23 07:16:34;;;;;;;5.63;4.22;;;21.10;99.90;;;;;;5034066;28;20041;-78
2022/08/23 07:19:00;;;;;;;6.45;4.57;;;21.30;99.90;;;;;;5033840;28;20049;-78
2022/08/23 07:21:25;;;;;;;8.37;4.40;;;21.30;99.90;;;;;;5033509;28;20041;-79
2022/08/23 07:23:52;;;;;;;8.03;4.63;;;21.40;99.90;;;;;;5033848;28;20505;-78
2022/08/23 07:26:18;;;;;;;6.40;4.85;;;21.50;99.90;;;;;;5033734;28;20096;-78
2022/08/23 07:28:44;;;;;;;6.03;3.97;;;21.60;99.90;;;;;;5033871;28;20046;-78
2022/08/23 07:31:17;;;;;;;9.13;4.20;;;21.70;99.90;;;;;;5032482;28;20049;-78
2022/08/23 07:33:44;;;;;;;5.28;4.03;;;21.80;99.90;;;;;;5032747;28;20053;-79
2022/08/23 07:36:16;;;;;;;4.80;3.63;;;21.90;99.90;;;;;;5033734;28;20120;-78
2022/08/23 07:38:43;;;;;;;6.70;4.10;;;22.00;99.90;;;;;;5033911;28;20390;-78
2022/08/23 07:41:10;;;;;;;9.25;4.47;;;22.10;99.90;;;;;;5033592;28;20081;-79
2022/08/23 07:43:36;;;;;;;8.90;4.00;;;22.10;99.90;;;;;;5033679;28;20041;-78
2022/08/23 07:46:02;;;;;;;6.47;3.77;;;22.20;99.90;;;;;;5032402;28;20052;-78
2022/08/23 07:48:28;;;;;;;6.68;3.72;;;22.40;99.90;;;;;;5033589;28;20152;-79
2022/08/23 07:50:57;;;;;;;5.38;3.80;;;22.40;99.90;;;;;;5032406;28;20049;-78
2022/08/23 07:53:24;;;;;;;7.60;3.47;;;22.50;99.90;;;;;;5033519;28;20042;-78
2022/08/23 07:55:49;;;;;;;;;;;22.60;99.90;;;;;;5033876;28;20049;-78
2022/08/23 07:58:15;;;;;;;6.18;3.83;;;22.80;99.90;;;;;;5033495;28;19921;-79
2022/08/23 08:00:41;;;;;;;5.83;3.60;;;22.90;99.90;;;;;;4999847;28;20132;-79
2022/08/23 08:03:08;;;;;;;6.90;3.45;;;23.00;99.90;;;;;;5033893;28;20048;-79
2022/08/23 08:05:34;;;;;;;5.13;3.50;;;23.10;99.90;;;;;;5033652;28;20053;-79
2022/08/23 08:08:02;;;;;;;6.97;3.43;;;23.20;99.90;;;;;;5033413;28;20049;-78
2022/08/23 08:10:27;;;;;;;7.45;3.47;;;23.30;99.90;;;;;;5033580;28;20044;-78
2022/08/23 08:12:53;;;;;;;5.50;3.43;;;23.30;99.90;;;;;;5033491;28;20057;-78
2022/08/23 08:15:19;;;;;;;7.03;3.10;;;23.50;99.90;;;;;;5033378;28;20486;-78
2022/08/23 08:17:49;;;;;;;7.82;3.20;;;23.60;99.90;;;;;;5032335;28;20072;-78
2022/08/23 08:20:16;;;;;;;6.90;3.50;;;23.70;99.90;;;;;;5032365;28;20136;-79
2022/08/23 08:22:42;;;;;;;6.10;3.55;;;23.80;99.90;;;;;;5033170;28;20053;-79
2022/08/23 08:25:09;;;;;;;6.45;3.45;;;23.90;99.90;;;;;;5032905;28;20545;-79
2022/08/23 08:27:35;;;;;;;7.75;3.58;;;24.00;99.90;;;;;;5033260;28;20128;-79
2022/08/23 08:30:03;;;;;;;7.85;3.45;;;24.00;99.90;;;;;;5032977;28;20473;-79
2022/08/23 08:32:28;;;;;;;6.22;3.80;;;24.10;99.90;;;;;;5033585;28;20126;-79
2022/08/23 08:34:54;;;;;;;7.40;3.40;;;24.20;99.90;;;;;;5033525;28;20450;-79
2022/08/23 08:37:20;;;;;;;6.17;4.17;;;24.40;99.90;;;;;;5032349;28;20049;-79
2022/08/23 08:39:45;;;;;;;5.43;3.70;;;24.50;99.90;;;;;;5033106;28;20045;-79
2022/08/23 08:42:11;;;;;;;8.77;4.10;;;24.50;99.90;;;;;;5018356;28;20046;-79
2022/08/23 08:44:51;;;;;;;6.03;4.07;;;24.50;99.90;;;;;;5036803;28;20045;-79
2022/08/23 08:47:48;;;;;;;5.25;3.78;;;24.50;99.90;;;;;;5037038;28;20049;-79
2022/08/23 08:50:25;;;;;;;7.47;3.67;;;24.50;99.90;;;;;;5036928;28;20132;-79
2022/08/23 08:52:56;;;;;;;6.93;3.30;;;24.50;99.90;;;;;;5036911;28;20129;-79
2022/08/23 08:55:32;;;;;;;6.97;3.22;;;24.40;99.90;;;;;;5036846;28;20072;-79
2022/08/23 08:57:58;;;;;;;5.50;3.10;;;24.40;99.90;;;;;;5036843;28;20042;-78
2022/08/23 09:00:29;;;;;;;7.90;2.83;;;24.40;99.90;;;;;;5036645;28;20056;-79
2022/08/23 09:02:58;;;;;;;7.55;3.13;;;24.40;99.90;;;;;;5036457;28;20049;-79
2022/08/23 09:05:31;;;;;;;8.90;3.25;;;24.70;99.90;;;;;;5036523;28;20057;-79
2022/08/23 09:08:36;;;;;;;8.07;3.15;;;24.90;99.90;;;;;;5036295;28;20522;-79
2022/08/23 09:11:24;;;;;;;6.70;2.90;;;25.10;99.90;;;;;;5036656;28;20060;-79
2022/08/23 09:14:00;;;;;;;;;;;25.40;99.90;;;;;;5037053;28;20068;-79
2022/08/23 09:16:37;;;;;;;7.53;3.58;;;25.60;99.90;;;;;;5036385;28;20007;-79
2022/08/23 09:19:04;;;;;;;6.07;2.90;;;25.70;99.90;;;;;;5036350;28;20505;-79
2022/08/23 09:21:44;;;;;;;3.80;2.50;;;25.80;99.90;;;;;;5036241;28;20060;-78
2022/08/23 09:24:10;;;;;;;6.60;2.88;;;25.80;99.90;;;;;;5036301;28;20051;-79
2022/08/23 09:26:35;;;;;;;7.77;3.00;;;25.90;99.90;;;;;;5035936;28;20045;-79
2022/08/23 09:29:30;;;;;;;8.37;2.50;;;26.10;99.90;;;;;;5035028;28;20125;-78
2022/08/23 09:32:05;;;;;;;5.43;2.97;;;26.20;99.90;;;;;;5036104;28;20409;-79
2022/08/23 09:34:36;;;;;;;5.82;2.80;;;26.10;99.90;;;;;;5036068;28;20485;-79
2022/08/23 09:37:12;;;;;;;7.00;2.22;;;26.20;99.80;;;;;;5036356;28;20136;-79
2022/08/23 09:39:41;;;;;;;7.78;3.05;;;26.30;99.90;;;;;;5036264;28;20127;-79
2022/08/23 09:42:40;;;;;;;6.97;2.47;;;26.50;99.10;;;;;;5035881;28;20503;-79
2022/08/23 09:45:33;;;;;;;7.28;2.28;;;26.50;98.90;;;;;;4981334;28;20079;-79
2022/08/23 09:47:59;;;;;;;5.07;2.60;;;26.60;99.20;;;;;;5035927;28;20115;-79
2022/08/23 09:50:37;;;;;;;4.03;2.33;;;26.60;98.50;;;;;;5036157;28;20045;-79
2022/08/23 09:53:07;;;;;;;4.65;2.33;;;26.70;98.20;;;;;;5035851;28;20523;-79
2022/08/23 09:55:40;;;;;;;5.95;2.55;;;26.80;98.30;;;;;;5034486;28;20048;-79
2022/08/23 09:58:17;;;;;;;6.00;2.55;;;27.00;98.50;;;;;;5035785;28;20401;-79
2022/08/23 10:00:44;;;;;;;4.70;2.30;;;27.10;97.50;;;;;;5018668;28;20047;-79
2022/08/23 10:03:26;;;;;;;4.85;2.47;;;27.20;97.90;;;;;;5035807;28;20104;-76
2022/08/23 10:05:55;;;;;;;4.72;2.20;;;27.30;96.20;;;;;;5035253;28;20552;-76
2022/08/23 10:08:31;;;;;;;6.18;2.13;;;27.30;96.70;;;;;;5035361;28;20045;-76
2022/08/23 10:11:19;;;;;;;4.50;1.80;;;27.40;97.30;;;;;;5035767;28;20041;-76
2022/08/23 10:13:44;;;;;;;6.80;2.33;;;27.50;97.30;;;;;;5034695;28;20060;-76
2022/08/23 10:16:39;;;;;;;4.33;2.13;;;27.60;97.10;;;;;;5035048;28;20049;-76
2022/08/23 10:19:18;;;;;;;4.30;2.15;;;27.80;96.70;;;;;;5031581;28;20053;-79
2022/08/23 10:21:59;;;;;;;4.07;2.00;;;27.90;94.40;;;;;;5035627;28;20107;-79
2022/08/23 10:25:11;;;;;;;9.68;2.30;;;27.90;95.30;;;;;;5034263;28;20049;-79
2022/08/23 10:30:48;;;;;;;6.05;2.08;;;27.90;94.00;;;;;;5034966;28;20093;-79
2022/08/23 10:33:31;;;;;;;4.38;1.80;;;28.00;93.90;;;;;;5034950;28;20102;-78
2022/08/23 10:36:13;;;;;;;6.90;1.90;;;28.20;94.50;;;;;;5035214;28;20052;-79
2022/08/23 10:38:47;;;;;;;5.00;1.90;;;28.20;92.20;;;;;;5033492;28;20049;-79
2022/08/23 10:41:32;;;;;;;5.95;1.67;;;28.30;93.30;;;;;;5035098;28;20493;-79
2022/08/23 10:44:00;;;;;;;3.67;1.95;;;28.40;92.50;;;;;;5033711;28;20053;-79
2022/08/23 10:46:29;;;;;;;5.75;1.90;;;28.50;91.80;;;;;;5034607;28;20057;-79
2022/08/23 10:49:00;;;;;;;4.05;1.67;;;28.60;92.40;;;;;;5033961;28;20156;-79
2022/08/23 10:51:28;;;;;;;6.25;2.00;;;28.60;91.30;;;;;;5034846;28;20103;-79
2022/08/23 10:53:59;;;;;;;4.43;1.83;;;28.70;91.80;;;;;;5034792;28;20477;-79
2022/08/23 10:56:27;;;;;;;5.43;2.20;;;28.70;91.90;;;;;;5034779;28;20060;-79
2022/08/23 10:59:03;;;;;;;7.78;2.03;;;28.70;92.30;;;;;;5033573;28;20049;-79
2022/08/23 11:01:42;;;;;;;4.75;1.80;;;28.70;92.00;;;;;;5033273;28;20080;-79
2022/08/23 11:04:35;;;;;;;3.55;1.70;;;28.60;91.40;;;;;;5034189;28;20056;-79
2022/08/23 11:07:13;;;;;;;4.68;2.22;;;28.70;91.50;;;;;;5033451;28;20037;-79
2022/08/23 11:10:06;;;;;;;6.07;2.05;;;28.80;92.00;;;;;;5034179;28;20094;-78
2022/08/23 11:12:50;;;;;;;4.50;1.90;;;29.00;92.20;;;;;;5034332;28;20053;-79
2022/08/23 11:15:36;;;;;;;5.05;1.90;;;29.10;92.00;;;;;;5034213;28;20049;-79
2022/08/23 11:18:06;;;;;;;4.85;1.90;;;29.30;91.40;;;;;;5034145;28;20042;-79
2022/08/23 11:20:51;;;;;;;4.57;2.10;;;29.30;91.60;;;;;;5034238;28;20492;-79
2022/08/23 11:23:37;;;;;;;5.90;2.47;;;29.30;90.10;;;;;;5033984;28;20107;-79
2022/08/23 11:26:06;;;;;;;4.90;2.17;;;29.40;91.20;;;;;;5034348;28;20092;-79
2022/08/23 11:28:45;;;;;;;3.72;2.05;;;29.50;91.00;;;;;;5032547;28;20041;-79
2022/08/23 11:31:11;;;;;;;7.80;1.83;;;29.70;90.20;;;;;;5032586;28;20053;-79
2022/08/23 11:33:48;;;;;;;4.40;1.90;;;29.80;90.90;;;;;;5033863;28;20041;-79
2022/08/23 11:36:26;;;;;;;4.20;2.00;;;29.90;90.40;;;;;;5033691;28;20050;-79
2022/08/23 11:38:51;;;;;;;4.03;1.85;;;30.00;89.60;;;;;;5034255;28;20107;-79
2022/08/23 11:41:53;;;;;;;4.00;1.73;;;29.90;88.50;;;;;;5033732;28;20049;-79
2022/08/23 11:44:38;;;;;;;7.35;1.90;;;29.90;90.20;;;;;;5033645;28;20072;-79
2022/08/23 11:47:07;;;;;;;7.70;1.95;;;30.00;89.60;;;;;;5033646;28;20049;-79
2022/08/23 11:49:52;;;;;;;4.63;1.77;;;29.80;89.40;;;;;;5033621;28;20051;-79
2022/08/23 11:52:32;;;;;;;4.05;1.77;;;29.80;90.10;;;;;;5033550;28;20092;-79
2022/08/23 11:55:01;;;;;;;4.10;1.85;;;29.80;90.50;;;;;;5033467;28;20057;-79
2022/08/23 11:58:12;;;;;;;2.75;1.60;;;29.80;89.40;;;;;;5033675;28;20378;-79
2022/08/23 12:01:07;;;;;;;4.30;1.88;;;29.90;87.30;;;;;;5003221;28;20057;-79
2022/08/23 12:03:51;;;;;;;4.35;2.05;;;30.00;87.70;;;;;;5033855;28;20555;-79
2022/08/23 12:06:35;;;;;;;4.38;1.95;;;30.10;87.20;;;;;;5033438;28;20041;-79
2022/08/23 12:09:10;;;;;;;3.17;1.88;;;30.10;88.20;;;;;;5033316;28;20481;-79
2022/08/23 12:11:54;;;;;;;7.13;1.90;;;30.20;88.20;;;;;;5033546;28;20419;-79
2022/08/23 12:14:40;;;;;;;5.18;1.75;;;30.30;87.70;;;;;;5032142;28;20054;-79
2022/08/23 12:17:11;;;;;;;3.60;1.80;;;30.40;85.40;;;;;;5035876;28;20085;-79
2022/08/23 12:19:45;;;;;;;4.88;1.90;;;30.40;87.50;;;;;;5037137;28;20053;-79
2022/08/23 12:22:18;;;;;;;4.78;1.70;;;30.40;85.70;;;;;;5037115;28;20092;-79
2022/08/23 12:24:51;;;;;;;4.43;1.90;;;30.50;86.60;;;;;;5037700;28;20384;-79
2022/08/23 12:27:24;;;;;;;5.55;1.80;;;30.60;86.10;;;;;;5035897;28;20147;-79
2022/08/23 12:30:04;;;;;;;3.92;1.85;;;30.60;87.10;;;;;;5036974;28;20045;-79
2022/08/23 12:32:47;;;;;;;5.90;2.13;;;30.60;84.60;;;;;;5036568;28;20056;-79
2022/08/23 12:35:37;;;;;;;3.50;1.63;;;30.50;84.80;;;;;;5037433;28;20049;-79
2022/08/23 12:38:17;;;;;;;4.47;2.10;;;30.50;84.90;;;;;;5036937;28;20060;-79
2022/08/23 12:40:46;;;;;;;5.28;1.80;;;30.60;86.40;;;;;;5036922;28;20080;-79
2022/08/23 12:43:12;;;;;;;4.35;1.92;;;30.70;85.90;;;;;;5036761;28;20053;-79
2022/08/23 12:45:41;;;;;;;5.18;2.00;;;30.70;86.00;;;;;;5036678;28;20045;-79
2022/08/23 12:48:10;;;;;;;5.10;2.10;;;30.90;84.60;;;;;;5036775;28;20045;-79
2022/08/23 12:50:40;;;;;;;3.55;1.77;;;30.90;83.90;;;;;;5036682;28;20049;-76
2022/08/23 12:53:11;;;;;;;5.40;1.80;;;31.00;83.50;;;;;;5036561;28;20042;-77
2022/08/23 12:55:40;;;;;;;4.00;1.90;;;31.00;80.40;;;;;;5036609;28;20110;-79
2022/08/23 12:58:08;;;;;;;3.75;1.90;;;30.90;81.70;;;;;;5036455;28;20049;-79
2022/08/23 13:00:42;;;;;;;4.07;1.92;;;31.00;82.90;;;;;;5036839;28;20049;-76
2022/08/23 13:03:24;;;;;;;3.78;1.67;;;31.00;82.30;;;;;;5035616;28;20102;-77
2022/08/23 13:05:57;;;;;;;3.92;1.80;;;31.10;81.60;;;;;;5036273;28;20045;-76
2022/08/23 13:08:28;;;;;;;3.22;1.90;;;31.10;82.80;;;;;;5036103;28;20508;-76
2022/08/23 13:10:54;;;;;;;6.00;2.40;;;30.90;79.80;;;;;;5036627;28;20436;-76
2022/08/23 13:13:22;;;;;;;;;;;30.80;81.20;;;;;;5036717;28;20397;-76
2022/08/23 13:15:57;;;;;;;4.75;2.10;;;30.80;80.00;;;;;;5036306;28;19921;-76